createdAt,value
2019-01-08T00:00:08.354Z,11.02
2019-01-08T00:00:20.724Z,11.02
2019-01-08T00:00:33.106Z,11.02
2019-01-08T00:00:45.578Z,11.02
2019-01-08T00:00:57.948Z,11.02
2019-01-08T00:01:10.310Z,11.02
2019-01-08T00:01:22.694Z,11.02
2019-01-08T00:01:35.067Z,11.02
2019-01-08T00:01:47.406Z,11.02
2019-01-08T00:01:59.923Z,11.02
2019-01-08T00:02:12.266Z,11.02
2019-01-08T00:02:24.873Z,11.02
2019-01-08T00:02:37.235Z,13.53
2019-01-08T00:02:49.769Z,13.53
2019-01-08T00:03:02.160Z,13.53
2019-01-08T00:03:14.524Z,13.53
2019-01-08T00:03:26.889Z,13.53
2019-01-08T00:03:39.349Z,13.53
2019-01-08T00:03:51.725Z,13.53
2019-01-08T00:04:04.081Z,13.53
2019-01-08T00:04:16.419Z,13.53
2019-01-08T00:04:28.767Z,13.53
2019-01-08T00:04:41.254Z,13.53
2019-01-08T00:04:53.692Z,13.53
2019-01-08T00:05:06.046Z,13.53
2019-01-08T00:05:18.457Z,13.53
2019-01-08T00:05:30.814Z,13.53
2019-01-08T00:05:43.165Z,13.53
2019-01-08T00:05:55.635Z,13.53
2019-01-08T00:06:08.030Z,13.53
2019-01-08T00:06:20.401Z,13.53
2019-01-08T00:06:32.785Z,13.53
2019-01-08T00:06:45.148Z,13.53
2019-01-08T00:06:57.498Z,13.53
2019-01-08T00:07:09.868Z,13.53
2019-01-08T00:07:23.352Z,13.53
2019-01-08T00:07:35.856Z,13.53
2019-01-08T00:07:48.236Z,13.53
2019-01-08T00:08:00.599Z,13.53
2019-01-08T00:08:13.033Z,13.53
2019-01-08T00:08:25.407Z,13.53
2019-01-08T00:08:37.775Z,13.53
2019-01-08T00:08:50.224Z,13.53
2019-01-08T00:09:02.663Z,13.53
2019-01-08T00:09:15.133Z,13.53
2019-01-08T00:09:27.512Z,13.53
2019-01-08T00:09:39.860Z,13.53
2019-01-08T00:09:52.193Z,13.53
2019-01-08T00:10:04.811Z,13.53
2019-01-08T00:10:17.338Z,13.53
2019-01-08T00:10:29.707Z,13.53
2019-01-08T00:10:42.050Z,13.53
2019-01-08T00:10:54.413Z,13.53
2019-01-08T00:11:06.758Z,13.53
2019-01-08T00:11:19.115Z,13.53
2019-01-08T00:11:31.464Z,13.53
2019-01-08T00:11:43.822Z,13.53
2019-01-08T00:11:56.177Z,13.53
2019-01-08T00:12:08.533Z,13.53
2019-01-08T00:12:20.927Z,13.53
2019-01-08T00:12:33.300Z,13.53
2019-01-08T00:12:45.686Z,11.85
2019-01-08T00:12:58.055Z,11.85
2019-01-08T00:13:10.410Z,11.85
2019-01-08T00:13:23.080Z,11.85
2019-01-08T00:13:35.439Z,11.85
2019-01-08T00:13:47.843Z,11.85
2019-01-08T00:14:00.199Z,11.85
2019-01-08T00:14:12.549Z,11.85
2019-01-08T00:14:24.914Z,11.85
2019-01-08T00:14:37.253Z,11.85
2019-01-08T00:14:49.611Z,11.85
2019-01-08T00:15:01.990Z,11.85
2019-01-08T00:15:14.347Z,11.85
2019-01-08T00:15:26.703Z,11.85
2019-01-08T00:15:39.066Z,11.85
2019-01-08T00:15:51.427Z,11.85
2019-01-08T00:16:03.790Z,11.85
2019-01-08T00:16:16.164Z,11.85
2019-01-08T00:16:28.521Z,11.85
2019-01-08T00:16:40.854Z,11.85
2019-01-08T00:16:53.208Z,11.85
2019-01-08T00:17:05.562Z,11.85
2019-01-08T00:17:17.913Z,11.85
2019-01-08T00:17:30.279Z,11.85
2019-01-08T00:17:42.623Z,11.85
2019-01-08T00:17:54.994Z,11.85
2019-01-08T00:18:07.349Z,11.85
2019-01-08T00:18:19.770Z,11.85
2019-01-08T00:18:32.131Z,11.85
2019-01-08T00:18:44.501Z,11.85
2019-01-08T00:18:58.305Z,11.85
2019-01-08T00:19:10.805Z,11.85
2019-01-08T00:19:23.141Z,11.85
2019-01-08T00:19:35.512Z,11.85
2019-01-08T00:19:47.884Z,11.85
2019-01-08T00:20:00.323Z,11.85
2019-01-08T00:20:12.686Z,11.85
2019-01-08T00:20:25.124Z,11.85
2019-01-08T00:20:37.522Z,11.85
2019-01-08T00:20:49.870Z,11.85
2019-01-08T00:21:02.220Z,11.85
2019-01-08T00:21:14.568Z,11.85
2019-01-08T00:21:26.932Z,11.85
2019-01-08T00:21:39.376Z,11.85
2019-01-08T00:21:51.735Z,11.85
2019-01-08T00:22:04.160Z,11.85
2019-01-08T00:22:16.665Z,11.85
2019-01-08T00:22:29.012Z,11.85
2019-01-08T00:22:41.428Z,9.83
2019-01-08T00:22:53.826Z,9.83
2019-01-08T00:23:06.175Z,9.83
2019-01-08T00:23:18.560Z,9.83
2019-01-08T00:23:30.903Z,9.83
2019-01-08T00:23:43.245Z,9.83
2019-01-08T00:23:55.591Z,9.83
2019-01-08T00:24:07.968Z,9.83
2019-01-08T00:24:20.319Z,9.83
2019-01-08T00:24:32.661Z,9.83
2019-01-08T00:24:45.033Z,9.83
2019-01-08T00:24:57.397Z,9.83
2019-01-08T00:25:09.755Z,9.83
2019-01-08T00:25:22.121Z,9.83
2019-01-08T00:25:34.464Z,9.83
2019-01-08T00:25:46.802Z,9.83
2019-01-08T00:25:59.146Z,9.83
2019-01-08T00:26:11.488Z,9.83
2019-01-08T00:26:23.840Z,9.83
2019-01-08T00:26:36.191Z,9.83
2019-01-08T00:26:48.576Z,9.83
2019-01-08T00:27:00.940Z,9.83
2019-01-08T00:27:13.288Z,9.83
2019-01-08T00:27:25.987Z,9.83
2019-01-08T00:27:38.329Z,9.83
2019-01-08T00:27:50.679Z,9.83
2019-01-08T00:28:03.043Z,9.83
2019-01-08T00:28:15.562Z,9.83
2019-01-08T00:28:28.081Z,9.83
2019-01-08T00:28:48.682Z,9.83
2019-01-08T00:29:01.068Z,9.83
2019-01-08T00:29:13.431Z,9.83
2019-01-08T00:29:25.778Z,9.83
2019-01-08T00:29:38.132Z,9.83
2019-01-08T00:29:50.477Z,9.83
2019-01-08T00:30:02.841Z,9.83
2019-01-08T00:30:15.196Z,9.83
2019-01-08T00:30:27.630Z,9.83
2019-01-08T00:30:39.979Z,9.83
2019-01-08T00:30:52.358Z,9.83
2019-01-08T00:31:04.714Z,9.83
2019-01-08T00:31:17.077Z,9.83
2019-01-08T00:31:29.429Z,9.83
2019-01-08T00:31:41.782Z,9.83
2019-01-08T00:31:54.125Z,9.83
2019-01-08T00:32:06.472Z,9.83
2019-01-08T00:32:18.844Z,9.83
2019-01-08T00:32:31.204Z,9.83
2019-01-08T00:32:43.548Z,13.1
2019-01-08T00:32:55.982Z,13.1
2019-01-08T00:33:08.418Z,13.1
2019-01-08T00:33:20.888Z,13.1
2019-01-08T00:33:33.243Z,13.1
2019-01-08T00:33:45.615Z,13.1
2019-01-08T00:33:57.964Z,13.1
2019-01-08T00:34:10.441Z,13.1
2019-01-08T00:34:22.769Z,13.1
2019-01-08T00:34:35.205Z,13.1
2019-01-08T00:34:47.554Z,13.1
2019-01-08T00:34:59.905Z,13.1
2019-01-08T00:35:12.416Z,13.1
2019-01-08T00:35:24.835Z,13.1
2019-01-08T00:35:37.185Z,13.1
2019-01-08T00:35:49.554Z,13.1
2019-01-08T00:36:01.898Z,13.1
2019-01-08T00:36:14.254Z,13.1
2019-01-08T00:36:26.603Z,13.1
2019-01-08T00:36:38.965Z,13.1
2019-01-08T00:36:51.326Z,13.1
2019-01-08T00:37:03.762Z,13.1
2019-01-08T00:37:16.208Z,13.1
2019-01-08T00:37:28.612Z,13.1
2019-01-08T00:37:40.970Z,13.1
2019-01-08T00:37:53.331Z,13.1
2019-01-08T00:38:05.680Z,13.1
2019-01-08T00:38:18.024Z,13.1
2019-01-08T00:38:30.360Z,13.1
2019-01-08T00:38:42.707Z,13.1
2019-01-08T00:38:55.069Z,13.1
2019-01-08T00:39:07.407Z,13.1
2019-01-08T00:39:19.763Z,13.1
2019-01-08T00:39:32.113Z,13.1
2019-01-08T00:39:44.483Z,13.1
2019-01-08T00:39:56.839Z,13.1
2019-01-08T00:40:09.264Z,13.1
2019-01-08T00:40:21.742Z,13.1
2019-01-08T00:40:34.208Z,13.1
2019-01-08T00:40:46.559Z,13.1
2019-01-08T00:40:58.916Z,13.1
2019-01-08T00:41:11.365Z,13.1
2019-01-08T00:41:23.752Z,13.1
2019-01-08T00:41:36.117Z,13.1
2019-01-08T00:41:48.601Z,13.1
2019-01-08T00:42:00.956Z,13.1
2019-01-08T00:42:13.306Z,13.1
2019-01-08T00:42:25.824Z,13.1
2019-01-08T00:42:38.174Z,7.1
2019-01-08T00:42:50.526Z,7.1
2019-01-08T00:43:02.907Z,7.1
2019-01-08T00:43:15.255Z,7.1
2019-01-08T00:43:27.611Z,7.1
2019-01-08T00:43:39.968Z,7.1
2019-01-08T00:43:52.331Z,7.1
2019-01-08T00:44:04.834Z,7.1
2019-01-08T00:44:17.264Z,7.1
2019-01-08T00:44:29.640Z,7.1
2019-01-08T00:44:42.098Z,7.1
2019-01-08T00:44:54.454Z,7.1
2019-01-08T00:45:07.011Z,7.1
2019-01-08T00:45:19.348Z,7.1
2019-01-08T00:45:31.694Z,7.1
2019-01-08T00:45:44.122Z,7.1
2019-01-08T00:45:56.457Z,7.1
2019-01-08T00:46:08.790Z,7.1
2019-01-08T00:46:21.169Z,7.1
2019-01-08T00:46:33.727Z,7.1
2019-01-08T00:46:46.110Z,7.1
2019-01-08T00:46:58.468Z,7.1
2019-01-08T00:47:11.099Z,7.1
2019-01-08T00:47:23.472Z,7.1
2019-01-08T00:47:35.817Z,7.1
2019-01-08T00:47:48.369Z,7.1
2019-01-08T00:48:00.706Z,7.1
2019-01-08T00:48:13.062Z,7.1
2019-01-08T00:48:25.416Z,7.1
2019-01-08T00:48:37.769Z,7.1
2019-01-08T00:48:50.106Z,7.1
2019-01-08T00:49:02.464Z,7.1
2019-01-08T00:49:14.825Z,7.1
2019-01-08T00:49:27.199Z,7.1
2019-01-08T00:49:39.558Z,7.1
2019-01-08T00:49:51.926Z,7.1
2019-01-08T00:50:04.281Z,7.1
2019-01-08T00:50:16.845Z,7.1
2019-01-08T00:50:29.266Z,7.1
2019-01-08T00:50:41.776Z,7.1
2019-01-08T00:50:54.135Z,7.1
2019-01-08T00:51:06.484Z,7.1
2019-01-08T00:51:18.919Z,7.1
2019-01-08T00:51:31.368Z,7.1
2019-01-08T00:51:43.812Z,7.1
2019-01-08T00:51:56.177Z,7.1
2019-01-08T00:52:08.611Z,7.1
2019-01-08T00:52:20.957Z,7.1
2019-01-08T00:52:33.321Z,7.1
2019-01-08T00:52:45.666Z,8.2
2019-01-08T00:52:58.662Z,8.2
2019-01-08T00:53:10.999Z,8.2
2019-01-08T00:53:23.378Z,8.2
2019-01-08T00:53:35.716Z,8.2
2019-01-08T00:53:48.067Z,8.2
2019-01-08T00:54:00.650Z,8.2
2019-01-08T00:54:13.008Z,8.2
2019-01-08T00:54:25.364Z,8.2
2019-01-08T00:54:37.824Z,8.2
2019-01-08T00:54:51.349Z,8.2
2019-01-08T00:55:03.724Z,8.2
2019-01-08T00:55:16.092Z,8.2
2019-01-08T00:55:28.443Z,8.2
2019-01-08T00:55:40.894Z,8.2
2019-01-08T00:55:53.254Z,8.2
2019-01-08T00:56:05.598Z,8.2
2019-01-08T00:56:17.967Z,8.2
2019-01-08T00:56:30.314Z,8.2
2019-01-08T00:56:42.768Z,8.2
2019-01-08T00:56:55.123Z,8.2
2019-01-08T00:57:07.486Z,8.2
2019-01-08T00:57:19.849Z,8.2
2019-01-08T00:57:32.313Z,8.2
2019-01-08T00:57:44.685Z,8.2
2019-01-08T00:57:57.062Z,8.2
2019-01-08T00:58:09.409Z,8.2
2019-01-08T00:58:21.927Z,8.2
2019-01-08T00:58:34.286Z,8.2
2019-01-08T00:58:54.787Z,8.2
2019-01-08T00:59:07.165Z,8.2
2019-01-08T00:59:19.524Z,8.2
2019-01-08T00:59:32.008Z,8.2
2019-01-08T00:59:44.359Z,8.2
2019-01-08T00:59:56.774Z,8.2
2019-01-08T01:00:09.293Z,8.2
2019-01-08T01:00:21.751Z,8.2
2019-01-08T01:00:34.138Z,8.2
2019-01-08T01:00:46.527Z,8.2
2019-01-08T01:00:58.921Z,8.2
2019-01-08T01:01:11.318Z,8.2
2019-01-08T01:01:23.696Z,8.2
2019-01-08T01:01:36.061Z,8.2
2019-01-08T01:01:48.410Z,8.2
2019-01-08T01:02:01.048Z,8.2
2019-01-08T01:02:13.386Z,8.2
2019-01-08T01:02:25.734Z,8.2
2019-01-08T01:02:38.248Z,7.62
2019-01-08T01:02:50.734Z,7.62
2019-01-08T01:03:03.081Z,7.62
2019-01-08T01:03:15.521Z,7.62
2019-01-08T01:03:27.885Z,7.62
2019-01-08T01:03:42.308Z,7.62
2019-01-08T01:03:54.731Z,7.62
2019-01-08T01:04:07.096Z,7.62
2019-01-08T01:04:19.457Z,7.62
2019-01-08T01:04:31.827Z,7.62
2019-01-08T01:04:44.506Z,7.62
2019-01-08T01:04:56.977Z,7.62
2019-01-08T01:05:09.357Z,7.62
2019-01-08T01:05:21.708Z,7.62
2019-01-08T01:05:34.157Z,7.62
2019-01-08T01:05:46.511Z,7.62
2019-01-08T01:05:59.008Z,7.62
2019-01-08T01:06:11.442Z,7.62
2019-01-08T01:06:23.803Z,7.62
2019-01-08T01:06:36.187Z,7.62
2019-01-08T01:06:48.553Z,7.62
2019-01-08T01:07:00.919Z,7.62
2019-01-08T01:07:13.263Z,7.62
2019-01-08T01:07:25.626Z,7.62
2019-01-08T01:07:38.164Z,7.62
2019-01-08T01:07:50.549Z,7.62
2019-01-08T01:08:02.899Z,7.62
2019-01-08T01:08:15.276Z,7.62
2019-01-08T01:08:27.651Z,7.62
2019-01-08T01:08:40.011Z,7.62
2019-01-08T01:08:52.402Z,7.62
2019-01-08T01:09:04.845Z,7.62
2019-01-08T01:09:17.279Z,7.62
2019-01-08T01:09:29.722Z,7.62
2019-01-08T01:09:42.078Z,7.62
2019-01-08T01:09:54.434Z,7.62
2019-01-08T01:10:06.923Z,7.62
2019-01-08T01:10:19.284Z,7.62
2019-01-08T01:10:31.638Z,7.62
2019-01-08T01:10:44.078Z,7.62
2019-01-08T01:10:56.432Z,7.62
2019-01-08T01:11:08.803Z,7.62
2019-01-08T01:11:21.156Z,7.62
2019-01-08T01:11:33.520Z,7.62
2019-01-08T01:11:45.865Z,7.62
2019-01-08T01:11:58.209Z,7.62
2019-01-08T01:12:10.627Z,7.62
2019-01-08T01:12:22.971Z,7.62
2019-01-08T01:12:35.495Z,7.62
2019-01-08T01:12:47.844Z,6.38
2019-01-08T01:13:00.192Z,6.38
2019-01-08T01:13:12.586Z,6.38
2019-01-08T01:13:24.954Z,6.38
2019-01-08T01:13:37.297Z,6.38
2019-01-08T01:13:49.662Z,6.38
2019-01-08T01:14:02.012Z,6.38
2019-01-08T01:14:14.376Z,6.38
2019-01-08T01:14:26.728Z,6.38
2019-01-08T01:14:39.139Z,6.38
2019-01-08T01:14:51.491Z,6.38
2019-01-08T01:15:03.914Z,6.38
2019-01-08T01:15:16.275Z,6.38
2019-01-08T01:15:28.625Z,6.38
2019-01-08T01:15:40.972Z,6.38
2019-01-08T01:15:53.413Z,6.38
2019-01-08T01:16:05.779Z,6.38
2019-01-08T01:16:18.137Z,6.38
2019-01-08T01:16:30.491Z,6.38
2019-01-08T01:16:42.928Z,6.38
2019-01-08T01:16:55.286Z,6.38
2019-01-08T01:17:07.644Z,6.38
2019-01-08T01:17:20.078Z,6.38
2019-01-08T01:17:32.559Z,6.38
2019-01-08T01:17:44.909Z,6.38
2019-01-08T01:17:57.274Z,6.38
2019-01-08T01:18:09.695Z,6.38
2019-01-08T01:18:22.064Z,6.38
2019-01-08T01:18:34.431Z,6.38
2019-01-08T01:18:46.783Z,6.38
2019-01-08T01:18:59.231Z,6.38
2019-01-08T01:19:11.595Z,6.38
2019-01-08T01:19:23.973Z,6.38
2019-01-08T01:19:36.345Z,6.38
2019-01-08T01:19:48.701Z,6.38
2019-01-08T01:20:01.054Z,6.38
2019-01-08T01:20:13.425Z,6.38
2019-01-08T01:20:25.773Z,6.38
2019-01-08T01:20:38.146Z,6.38
2019-01-08T01:20:50.496Z,6.38
2019-01-08T01:21:05.134Z,6.38
2019-01-08T01:21:17.490Z,6.38
2019-01-08T01:21:29.981Z,6.38
2019-01-08T01:21:42.412Z,6.38
2019-01-08T01:21:54.954Z,6.38
2019-01-08T01:22:07.318Z,6.38
2019-01-08T01:22:19.663Z,6.38
2019-01-08T01:22:32.027Z,6.38
2019-01-08T01:22:44.373Z,5.77
2019-01-08T01:22:56.738Z,5.77
2019-01-08T01:23:09.105Z,5.77
2019-01-08T01:23:21.522Z,5.77
2019-01-08T01:23:33.871Z,5.77
2019-01-08T01:23:46.220Z,5.77
2019-01-08T01:23:58.566Z,5.77
2019-01-08T01:24:11.014Z,5.77
2019-01-08T01:24:23.381Z,5.77
2019-01-08T01:24:35.740Z,5.77
2019-01-08T01:24:48.105Z,5.77
2019-01-08T01:25:00.463Z,5.77
2019-01-08T01:25:12.844Z,5.77
2019-01-08T01:25:25.237Z,5.77
2019-01-08T01:25:37.675Z,5.77
2019-01-08T01:25:50.069Z,5.77
2019-01-08T01:26:02.502Z,5.77
2019-01-08T01:26:14.949Z,5.77
2019-01-08T01:26:27.298Z,5.77
2019-01-08T01:26:39.759Z,5.77
2019-01-08T01:26:52.125Z,5.77
2019-01-08T01:27:04.490Z,5.77
2019-01-08T01:27:16.850Z,5.77
2019-01-08T01:27:29.433Z,5.77
2019-01-08T01:27:41.816Z,5.77
2019-01-08T01:27:54.174Z,5.77
2019-01-08T01:28:06.527Z,5.77
2019-01-08T01:28:18.889Z,5.77
2019-01-08T01:28:31.238Z,5.77
2019-01-08T01:28:43.603Z,5.77
2019-01-08T01:29:04.459Z,5.77
2019-01-08T01:29:16.813Z,5.77
2019-01-08T01:29:29.155Z,5.77
2019-01-08T01:29:41.508Z,5.77
2019-01-08T01:29:53.908Z,5.77
2019-01-08T01:30:06.269Z,5.77
2019-01-08T01:30:18.653Z,5.77
2019-01-08T01:30:31.040Z,5.77
2019-01-08T01:30:43.410Z,5.77
2019-01-08T01:30:55.765Z,5.77
2019-01-08T01:31:08.203Z,5.77
2019-01-08T01:31:20.895Z,5.77
2019-01-08T01:31:33.254Z,5.77
2019-01-08T01:31:45.620Z,5.77
2019-01-08T01:31:57.984Z,5.77
2019-01-08T01:32:10.454Z,5.77
2019-01-08T01:32:22.807Z,5.77
2019-01-08T01:32:35.169Z,5.77
2019-01-08T01:32:47.510Z,6.92
2019-01-08T01:32:59.862Z,6.92
2019-01-08T01:33:12.207Z,6.92
2019-01-08T01:33:24.565Z,6.92
2019-01-08T01:33:36.927Z,6.92
2019-01-08T01:33:49.282Z,6.92
2019-01-08T01:34:01.631Z,6.92
2019-01-08T01:34:14.053Z,6.92
2019-01-08T01:34:26.413Z,6.92
2019-01-08T01:34:38.755Z,6.92
2019-01-08T01:34:51.126Z,6.92
2019-01-08T01:35:03.663Z,6.92
2019-01-08T01:35:16.161Z,6.92
2019-01-08T01:35:28.602Z,6.92
2019-01-08T01:35:40.970Z,6.92
2019-01-08T01:35:53.318Z,6.92
2019-01-08T01:36:05.677Z,6.92
2019-01-08T01:36:18.026Z,6.92
2019-01-08T01:36:30.423Z,6.92
2019-01-08T01:36:42.853Z,6.92
2019-01-08T01:36:55.195Z,6.92
2019-01-08T01:37:07.553Z,6.92
2019-01-08T01:37:20.045Z,6.92
2019-01-08T01:37:32.395Z,6.92
2019-01-08T01:37:44.755Z,6.92
2019-01-08T01:37:57.113Z,6.92
2019-01-08T01:38:09.469Z,6.92
2019-01-08T01:38:21.832Z,6.92
2019-01-08T01:38:34.198Z,6.92
2019-01-08T01:38:46.663Z,6.92
2019-01-08T01:38:59.022Z,6.92
2019-01-08T01:39:11.380Z,6.92
2019-01-08T01:39:23.743Z,6.92
2019-01-08T01:39:36.105Z,6.92
2019-01-08T01:39:48.524Z,6.92
2019-01-08T01:40:00.937Z,6.92
2019-01-08T01:40:13.298Z,6.92
2019-01-08T01:40:25.796Z,6.92
2019-01-08T01:40:38.278Z,6.92
2019-01-08T01:40:50.676Z,6.92
2019-01-08T01:41:03.099Z,6.92
2019-01-08T01:41:15.573Z,6.92
2019-01-08T01:41:28.019Z,6.92
2019-01-08T01:41:40.466Z,6.92
2019-01-08T01:41:52.809Z,6.92
2019-01-08T01:42:05.273Z,6.92
2019-01-08T01:42:17.637Z,6.92
2019-01-08T01:42:29.973Z,6.92
2019-01-08T01:42:42.522Z,5.2
2019-01-08T01:42:54.868Z,5.2
2019-01-08T01:43:07.227Z,5.2
2019-01-08T01:43:19.623Z,5.2
2019-01-08T01:43:31.991Z,5.2
2019-01-08T01:43:44.338Z,5.2
2019-01-08T01:43:56.741Z,5.2
2019-01-08T01:44:09.198Z,5.2
2019-01-08T01:44:21.548Z,5.2
2019-01-08T01:44:33.928Z,5.2
2019-01-08T01:44:46.272Z,5.2
2019-01-08T01:44:58.693Z,5.2
2019-01-08T01:45:11.060Z,5.2
2019-01-08T01:45:23.458Z,5.2
2019-01-08T01:45:35.803Z,5.2
2019-01-08T01:45:48.161Z,5.2
2019-01-08T01:46:00.503Z,5.2
2019-01-08T01:46:12.855Z,5.2
2019-01-08T01:46:25.202Z,5.2
2019-01-08T01:46:37.540Z,5.2
2019-01-08T01:46:49.883Z,5.2
2019-01-08T01:47:02.242Z,5.2
2019-01-08T01:47:14.606Z,5.2
2019-01-08T01:47:27.005Z,5.2
2019-01-08T01:47:39.689Z,5.2
2019-01-08T01:47:52.187Z,5.2
2019-01-08T01:48:04.536Z,5.2
2019-01-08T01:48:16.976Z,5.2
2019-01-08T01:48:29.314Z,5.2
2019-01-08T01:48:41.677Z,5.2
2019-01-08T01:48:54.027Z,5.2
2019-01-08T01:49:06.481Z,5.2
2019-01-08T01:49:18.818Z,5.2
2019-01-08T01:49:31.185Z,5.2
2019-01-08T01:49:43.538Z,5.2
2019-01-08T01:49:55.908Z,5.2
2019-01-08T01:50:08.379Z,5.2
2019-01-08T01:50:20.853Z,5.2
2019-01-08T01:50:33.208Z,5.2
2019-01-08T01:50:45.720Z,5.2
2019-01-08T01:50:58.144Z,5.2
2019-01-08T01:51:10.496Z,5.2
2019-01-08T01:51:22.973Z,5.2
2019-01-08T01:51:35.475Z,5.2
2019-01-08T01:51:47.848Z,5.2
2019-01-08T01:52:00.203Z,5.2
2019-01-08T01:52:12.607Z,5.2
2019-01-08T01:52:24.975Z,5.2
2019-01-08T01:52:37.359Z,5.2
2019-01-08T01:52:49.697Z,5.8
2019-01-08T01:53:02.215Z,5.8
2019-01-08T01:53:14.676Z,5.8
2019-01-08T01:53:27.056Z,5.8
2019-01-08T01:53:39.431Z,5.8
2019-01-08T01:53:51.857Z,5.8
2019-01-08T01:54:04.209Z,5.8
2019-01-08T01:54:17.910Z,5.8
2019-01-08T01:54:30.278Z,5.8
2019-01-08T01:54:42.659Z,5.8
2019-01-08T01:54:55.057Z,5.8
2019-01-08T01:55:07.413Z,5.8
2019-01-08T01:55:19.776Z,5.8
2019-01-08T01:55:32.126Z,5.8
2019-01-08T01:55:44.565Z,5.8
2019-01-08T01:55:56.911Z,5.8
2019-01-08T01:56:09.259Z,5.8
2019-01-08T01:56:21.698Z,5.8
2019-01-08T01:56:34.060Z,5.8
2019-01-08T01:56:46.420Z,5.8
2019-01-08T01:56:58.876Z,5.8
2019-01-08T01:57:11.252Z,5.8
2019-01-08T01:57:23.615Z,5.8
2019-01-08T01:57:35.997Z,5.8
2019-01-08T01:57:48.366Z,5.8
2019-01-08T01:58:00.718Z,5.8
2019-01-08T01:58:13.080Z,5.8
2019-01-08T01:58:25.445Z,5.8
2019-01-08T01:58:38.094Z,5.8
2019-01-08T01:58:50.528Z,5.8
2019-01-08T01:59:10.525Z,5.8
2019-01-08T01:59:22.970Z,5.8
2019-01-08T01:59:35.343Z,5.8
2019-01-08T01:59:47.708Z,5.8
2019-01-08T02:00:00.094Z,5.8
2019-01-08T02:00:12.533Z,5.8
2019-01-08T02:00:24.914Z,5.8
2019-01-08T02:00:37.305Z,5.8
2019-01-08T02:00:49.666Z,5.8
2019-01-08T02:01:02.033Z,5.8
2019-01-08T02:01:14.417Z,5.8
2019-01-08T02:01:26.828Z,5.8
2019-01-08T02:01:39.187Z,5.8
2019-01-08T02:01:51.565Z,5.8
2019-01-08T02:02:04.099Z,5.8
2019-01-08T02:02:16.472Z,5.8
2019-01-08T02:02:28.830Z,5.8
2019-01-08T02:02:41.184Z,5.35
2019-01-08T02:02:53.695Z,5.35
2019-01-08T02:03:06.044Z,5.35
2019-01-08T02:03:18.392Z,5.35
2019-01-08T02:03:30.753Z,5.35
2019-01-08T02:03:43.097Z,5.35
2019-01-08T02:03:55.543Z,5.35
2019-01-08T02:04:07.909Z,5.35
2019-01-08T02:04:20.338Z,5.35
2019-01-08T02:04:32.693Z,5.35
2019-01-08T02:04:45.330Z,5.35
2019-01-08T02:04:57.682Z,5.35
2019-01-08T02:05:10.176Z,5.35
2019-01-08T02:05:22.539Z,5.35
2019-01-08T02:05:34.899Z,5.35
2019-01-08T02:05:47.242Z,5.35
2019-01-08T02:05:59.719Z,5.35
2019-01-08T02:06:12.091Z,5.35
2019-01-08T02:06:24.441Z,5.35
2019-01-08T02:06:36.797Z,5.35
2019-01-08T02:06:49.155Z,5.35
2019-01-08T02:07:01.584Z,5.35
2019-01-08T02:07:13.944Z,5.35
2019-01-08T02:07:26.347Z,5.35
2019-01-08T02:07:38.836Z,5.35
2019-01-08T02:07:51.176Z,5.35
2019-01-08T02:08:03.540Z,5.35
2019-01-08T02:08:15.979Z,5.35
2019-01-08T02:08:28.320Z,5.35
2019-01-08T02:08:40.759Z,5.35
2019-01-08T02:08:53.112Z,5.35
2019-01-08T02:09:05.503Z,5.35
2019-01-08T02:09:17.862Z,5.35
2019-01-08T02:09:30.215Z,5.35
2019-01-08T02:09:42.645Z,5.35
2019-01-08T02:09:55.161Z,5.35
2019-01-08T02:10:07.528Z,5.35
2019-01-08T02:10:19.893Z,5.35
2019-01-08T02:10:32.258Z,5.35
2019-01-08T02:10:44.606Z,5.35
2019-01-08T02:10:57.075Z,5.35
2019-01-08T02:11:09.437Z,5.35
2019-01-08T02:11:21.816Z,5.35
2019-01-08T02:11:34.158Z,5.35
2019-01-08T02:11:46.508Z,5.35
2019-01-08T02:11:58.858Z,5.35
2019-01-08T02:12:11.237Z,5.35
2019-01-08T02:12:23.610Z,5.35
2019-01-08T02:12:36.042Z,5.35
2019-01-08T02:12:48.395Z,4.5
2019-01-08T02:13:00.754Z,4.5
2019-01-08T02:13:13.155Z,4.5
2019-01-08T02:13:25.510Z,4.5
2019-01-08T02:13:37.943Z,4.5
2019-01-08T02:13:50.284Z,4.5
2019-01-08T02:14:02.854Z,4.5
2019-01-08T02:14:15.204Z,4.5
2019-01-08T02:14:27.565Z,4.5
2019-01-08T02:14:39.915Z,4.5
2019-01-08T02:14:52.259Z,4.5
2019-01-08T02:15:04.676Z,4.5
2019-01-08T02:15:17.027Z,4.5
2019-01-08T02:15:29.372Z,4.5
2019-01-08T02:15:41.736Z,4.5
2019-01-08T02:15:54.092Z,4.5
2019-01-08T02:16:06.441Z,4.5
2019-01-08T02:16:18.799Z,4.5
2019-01-08T02:16:31.225Z,4.5
2019-01-08T02:16:43.588Z,4.5
2019-01-08T02:16:55.977Z,4.5
2019-01-08T02:17:08.333Z,4.5
2019-01-08T02:17:20.769Z,4.5
2019-01-08T02:17:33.130Z,4.5
2019-01-08T02:17:45.490Z,4.5
2019-01-08T02:17:57.853Z,4.5
2019-01-08T02:18:10.222Z,4.5
2019-01-08T02:18:22.585Z,4.5
2019-01-08T02:18:34.923Z,4.5
2019-01-08T02:18:47.261Z,4.5
2019-01-08T02:18:59.621Z,4.5
2019-01-08T02:19:12.037Z,4.5
2019-01-08T02:19:24.491Z,4.5
2019-01-08T02:19:36.850Z,4.5
2019-01-08T02:19:49.215Z,4.5
2019-01-08T02:20:01.609Z,4.5
2019-01-08T02:20:13.964Z,4.5
2019-01-08T02:20:26.311Z,4.5
2019-01-08T02:20:38.666Z,4.5
2019-01-08T02:20:51.121Z,4.5
2019-01-08T02:21:03.554Z,4.5
2019-01-08T02:21:16.000Z,4.5
2019-01-08T02:21:28.510Z,4.5
2019-01-08T02:21:40.871Z,4.5
2019-01-08T02:21:53.265Z,4.5
2019-01-08T02:22:05.607Z,4.5
2019-01-08T02:22:17.954Z,4.5
2019-01-08T02:22:30.326Z,4.5
2019-01-08T02:22:42.681Z,5.62
2019-01-08T02:22:55.116Z,5.62
2019-01-08T02:23:07.615Z,5.62
2019-01-08T02:23:19.961Z,5.62
2019-01-08T02:23:32.395Z,5.62
2019-01-08T02:23:44.830Z,5.62
2019-01-08T02:23:57.184Z,5.62
2019-01-08T02:24:09.512Z,5.62
2019-01-08T02:24:21.874Z,5.62
2019-01-08T02:24:34.311Z,5.62
2019-01-08T02:24:46.668Z,5.62
2019-01-08T02:24:59.005Z,5.62
2019-01-08T02:25:11.511Z,5.62
2019-01-08T02:25:23.860Z,5.62
2019-01-08T02:25:36.231Z,5.62
2019-01-08T02:25:48.584Z,5.62
2019-01-08T02:26:00.939Z,5.62
2019-01-08T02:26:13.378Z,5.62
2019-01-08T02:26:26.804Z,5.62
2019-01-08T02:26:39.163Z,5.62
2019-01-08T02:26:51.529Z,5.62
2019-01-08T02:27:03.951Z,5.62
2019-01-08T02:27:16.350Z,5.62
2019-01-08T02:27:29.001Z,5.62
2019-01-08T02:27:41.351Z,5.62
2019-01-08T02:27:53.702Z,5.62
2019-01-08T02:28:06.140Z,5.62
2019-01-08T02:28:18.493Z,5.62
2019-01-08T02:28:30.872Z,5.62
2019-01-08T02:28:43.220Z,5.62
2019-01-08T02:28:55.587Z,5.62
2019-01-08T02:29:07.953Z,5.62
2019-01-08T02:29:27.735Z,5.62
2019-01-08T02:29:40.090Z,5.62
2019-01-08T02:29:52.444Z,5.62
2019-01-08T02:30:04.872Z,5.62
2019-01-08T02:30:17.314Z,5.62
2019-01-08T02:30:29.726Z,5.62
2019-01-08T02:30:42.118Z,5.62
2019-01-08T02:30:54.503Z,5.62
2019-01-08T02:31:06.955Z,5.62
2019-01-08T02:31:19.325Z,5.62
2019-01-08T02:31:31.720Z,5.62
2019-01-08T02:31:44.131Z,5.62
2019-01-08T02:31:56.591Z,5.62
2019-01-08T02:32:09.006Z,5.62
2019-01-08T02:32:24.235Z,5.62
2019-01-08T02:32:36.600Z,5.62
2019-01-08T02:32:48.952Z,4.79
2019-01-08T02:33:01.363Z,4.79
2019-01-08T02:33:13.760Z,4.79
2019-01-08T02:33:26.189Z,4.79
2019-01-08T02:33:38.591Z,4.79
2019-01-08T02:33:50.971Z,4.79
2019-01-08T02:34:03.345Z,4.79
2019-01-08T02:34:15.716Z,4.79
2019-01-08T02:34:28.111Z,4.79
2019-01-08T02:34:40.477Z,4.79
2019-01-08T02:34:52.845Z,4.79
2019-01-08T02:35:05.207Z,4.79
2019-01-08T02:35:18.213Z,4.79
2019-01-08T02:35:30.759Z,4.79
2019-01-08T02:35:43.146Z,4.79
2019-01-08T02:35:55.561Z,4.79
2019-01-08T02:36:07.971Z,4.79
2019-01-08T02:36:20.356Z,4.79
2019-01-08T02:36:32.768Z,4.79
2019-01-08T02:36:45.150Z,4.79
2019-01-08T02:36:57.650Z,4.79
2019-01-08T02:37:10.169Z,4.79
2019-01-08T02:37:22.757Z,4.79
2019-01-08T02:37:35.293Z,4.79
2019-01-08T02:37:47.673Z,4.79
2019-01-08T02:38:00.065Z,4.79
2019-01-08T02:38:12.446Z,4.79
2019-01-08T02:38:24.861Z,4.79
2019-01-08T02:38:37.254Z,4.79
2019-01-08T02:38:49.657Z,4.79
2019-01-08T02:39:02.027Z,4.79
2019-01-08T02:39:14.555Z,4.79
2019-01-08T02:39:26.935Z,4.79
2019-01-08T02:39:39.309Z,4.79
2019-01-08T02:39:51.712Z,4.79
2019-01-08T02:40:04.111Z,4.79
2019-01-08T02:40:16.486Z,4.79
2019-01-08T02:40:28.929Z,4.79
2019-01-08T02:40:41.408Z,4.79
2019-01-08T02:40:53.776Z,4.79
2019-01-08T02:41:06.170Z,4.79
2019-01-08T02:41:19.582Z,4.79
2019-01-08T02:41:33.510Z,4.79
2019-01-08T02:41:46.820Z,4.79
2019-01-08T02:42:00.530Z,4.79
2019-01-08T02:42:13.254Z,4.79
2019-01-08T02:42:25.646Z,4.79
2019-01-08T02:42:38.108Z,4.79
2019-01-08T02:42:50.703Z,5.52
2019-01-08T02:43:03.187Z,5.52
2019-01-08T02:43:15.573Z,5.52
2019-01-08T02:43:28.040Z,5.52
2019-01-08T02:43:40.405Z,5.52
2019-01-08T02:43:52.930Z,5.52
2019-01-08T02:44:06.484Z,5.52
2019-01-08T02:44:20.063Z,5.52
2019-01-08T02:44:33.554Z,5.52
2019-01-08T02:44:47.316Z,5.52
2019-01-08T02:45:00.265Z,5.52
2019-01-08T02:45:12.738Z,5.52
2019-01-08T02:45:25.106Z,5.52
2019-01-08T02:45:37.581Z,5.52
2019-01-08T02:45:49.948Z,5.52
2019-01-08T02:46:02.637Z,5.52
2019-01-08T02:46:16.701Z,5.52
2019-01-08T02:46:30.036Z,5.52
2019-01-08T02:46:43.943Z,5.52
2019-01-08T02:46:57.040Z,5.52